首页
METAR-TAF:

METAR-TAF

机场 :

恰斯拉夫, 捷克共和国

纬度: 49-56-23N, 经度: 15-22-55E, 海拔: 242米

当前天气观测

该预报发布于25分钟前的05:00 UTC
风速5节,风向南转西南
温度 4°C
湿度 81%
气压 994 hPa
能见度10公里或以上
1500米以下无云,无积雨云

METAR: LKCV 260500Z 21005KT CAVOK 04/01 Q0994 NOSIG RMK BLU BLU

时间: 06:25 (05:25 UTC)

预报

该预报发布于6小时和25分钟前的23:00 UTC
预报有效从26日的 00点(UTC)到 27日的 00点(UTC)
风速10节,风向西转西南
能见度10公里或以上
散云层高于4000英尺
短暂存在
从 26日的 00点(UTC)到 26日的 03点(UTC)
风速14节,风向西转西南,有时为24节阵风
能見度: 8000
多云层高于2500英尺
成为
从 26日的 05点(UTC)到 26日的 07点(UTC)
多云层高于3000英尺
几率 30% :
短暂存在
从 26日的 06点(UTC)到 26日的 12点(UTC)
能見度: 8000
多云层高于2000英尺
短暂存在
从 26日的 13点(UTC)到 27日的 00点(UTC)
风速14节,风向西,有时为26节阵风
能見度: 7000
多云层高于2000英尺
阵雨

TAF: LKCV 252300Z 2600/2700 24010KT 9999 SCT040 TEMPO 2600/2603 24014G24KT 8000 RA BKN025 BECMG 2605/2607 BKN030 PROB30 TEMPO 2606/2612 8000 RA BKN020 TEMPO 2613/2700 26014G26KT 7000 SHRA BKN020

超过4000个机场的气象观测和天气预报(METAR&TAF报告)。

可查询的气象台以黄色和红色小点在地图上表示。

将鼠标移到小点上方,可查看气象台名称。

然后点击查看天气观测和预报。

如需切换地图:点击带黑十字的绿色按钮放大地图;点击带横线的绿色按钮缩小地图;或者点击绿色箭头查看邻近地区的地图。


METAR-TAF: